sensor_id;sensor_type;location;lat;lon;timestamp;pressure;altitude;pressure_sealevel;temperature;humidity
56582;BME280;42463;52.214;21.238;2022-07-29T00:01:04;100877.90;;;17.20;60.85
56582;BME280;42463;52.214;21.238;2022-07-29T00:03:31;100876.19;;;17.20;60.76
56582;BME280;42463;52.214;21.238;2022-07-29T00:05:57;100875.42;;;17.21;60.89
56582;BME280;42463;52.214;21.238;2022-07-29T00:08:24;100880.46;;;17.21;60.73
56582;BME280;42463;52.214;21.238;2022-07-29T00:10:50;100877.13;;;17.20;60.64
56582;BME280;42463;52.214;21.238;2022-07-29T00:13:17;100879.33;;;17.21;60.50
56582;BME280;42463;52.214;21.238;2022-07-29T00:15:44;100880.91;;;17.21;60.55
56582;BME280;42463;52.214;21.238;2022-07-29T00:18:10;100882.77;;;17.22;60.47
56582;BME280;42463;52.214;21.238;2022-07-29T00:20:36;100880.85;;;17.22;60.48
56582;BME280;42463;52.214;21.238;2022-07-29T00:23:03;100882.64;;;17.23;60.52
56582;BME280;42463;52.214;21.238;2022-07-29T00:25:29;100882.87;;;17.23;60.24
56582;BME280;42463;52.214;21.238;2022-07-29T00:27:55;100880.06;;;17.23;60.27
56582;BME280;42463;52.214;21.238;2022-07-29T00:30:22;100880.28;;;17.23;60.16
56582;BME280;42463;52.214;21.238;2022-07-29T00:32:48;100885.17;;;17.22;60.01
56582;BME280;42463;52.214;21.238;2022-07-29T00:35:15;100885.58;;;17.21;60.08
56582;BME280;42463;52.214;21.238;2022-07-29T00:37:59;100885.48;;;17.20;60.00
56582;BME280;42463;52.214;21.238;2022-07-29T00:40:25;100889.42;;;17.19;59.97
56582;BME280;42463;52.214;21.238;2022-07-29T00:42:53;100893.39;;;17.19;60.04
56582;BME280;42463;52.214;21.238;2022-07-29T00:45:20;100893.48;;;17.19;59.94
56582;BME280;42463;52.214;21.238;2022-07-29T00:47:46;100893.21;;;17.19;60.04
56582;BME280;42463;52.214;21.238;2022-07-29T00:50:14;100886.20;;;17.18;60.01
56582;BME280;42463;52.214;21.238;2022-07-29T00:52:42;100886.15;;;17.18;60.01
56582;BME280;42463;52.214;21.238;2022-07-29T00:55:11;100886.80;;;17.17;59.87
56582;BME280;42463;52.214;21.238;2022-07-29T00:57:39;100886.39;;;17.15;59.93
56582;BME280;42463;52.214;21.238;2022-07-29T01:04:11;100881.54;;;17.11;59.87
56582;BME280;42463;52.214;21.238;2022-07-29T01:06:38;100882.66;;;17.09;59.94
56582;BME280;42463;52.214;21.238;2022-07-29T01:09:04;100879.76;;;17.08;60.02
56582;BME280;42463;52.214;21.238;2022-07-29T01:11:30;100880.60;;;17.05;60.06
56582;BME280;42463;52.214;21.238;2022-07-29T01:13:57;100883.64;;;17.03;60.07
56582;BME280;42463;52.214;21.238;2022-07-29T01:16:31;100874.83;;;17.01;59.98
56582;BME280;42463;52.214;21.238;2022-07-29T01:19:07;100873.30;;;16.99;60.09
56582;BME280;42463;52.214;21.238;2022-07-29T01:21:57;100869.98;;;16.98;60.20
56582;BME280;42463;52.214;21.238;2022-07-29T01:24:55;100870.09;;;16.96;60.15
56582;BME280;42463;52.214;21.238;2022-07-29T01:27:41;100868.58;;;16.94;60.13
56582;BME280;42463;52.214;21.238;2022-07-29T01:30:11;100871.27;;;16.91;60.06
56582;BME280;42463;52.214;21.238;2022-07-29T01:32:39;100875.08;;;16.90;60.10
56582;BME280;42463;52.214;21.238;2022-07-29T01:35:14;100870.09;;;16.88;60.24
56582;BME280;42463;52.214;21.238;2022-07-29T01:37:47;100875.05;;;16.86;60.33
56582;BME280;42463;52.214;21.238;2022-07-29T01:40:24;100881.14;;;16.85;60.32
56582;BME280;42463;52.214;21.238;2022-07-29T01:42:55;100882.89;;;16.84;60.49
56582;BME280;42463;52.214;21.238;2022-07-29T01:45:27;100881.64;;;16.83;60.47
56582;BME280;42463;52.214;21.238;2022-07-29T01:48:00;100878.85;;;16.82;60.31
56582;BME280;42463;52.214;21.238;2022-07-29T01:50:36;100883.30;;;16.81;60.49
56582;BME280;42463;52.214;21.238;2022-07-29T01:53:06;100879.09;;;16.79;60.60
56582;BME280;42463;52.214;21.238;2022-07-29T01:55:36;100877.23;;;16.77;60.64
56582;BME280;42463;52.214;21.238;2022-07-29T01:58:05;100877.98;;;16.75;60.63
56582;BME280;42463;52.214;21.238;2022-07-29T02:00:34;100876.73;;;16.71;60.73
56582;BME280;42463;52.214;21.238;2022-07-29T02:03:05;100877.02;;;16.69;61.01
56582;BME280;42463;52.214;21.238;2022-07-29T02:05:34;100875.93;;;16.66;60.98
56582;BME280;42463;52.214;21.238;2022-07-29T02:08:02;100883.03;;;16.64;61.05
56582;BME280;42463;52.214;21.238;2022-07-29T02:10:32;100884.69;;;16.60;61.03
56582;BME280;42463;52.214;21.238;2022-07-29T02:13:00;100888.00;;;16.56;61.20
56582;BME280;42463;52.214;21.238;2022-07-29T02:15:30;100884.24;;;16.52;61.09
56582;BME280;42463;52.214;21.238;2022-07-29T02:18:02;100886.34;;;16.50;61.42
56582;BME280;42463;52.214;21.238;2022-07-29T02:20:31;100884.91;;;16.50;61.46
56582;BME280;42463;52.214;21.238;2022-07-29T02:22:58;100885.08;;;16.50;61.46
56582;BME280;42463;52.214;21.238;2022-07-29T02:25:26;100884.14;;;16.50;61.56
56582;BME280;42463;52.214;21.238;2022-07-29T02:27:53;100884.73;;;16.50;61.69
56582;BME280;42463;52.214;21.238;2022-07-29T02:30:22;100881.35;;;16.50;61.70
56582;BME280;42463;52.214;21.238;2022-07-29T02:32:50;100881.68;;;16.49;61.63
56582;BME280;42463;52.214;21.238;2022-07-29T02:35:19;100880.20;;;16.49;61.74
56582;BME280;42463;52.214;21.238;2022-07-29T02:37:47;100884.75;;;16.48;61.77
56582;BME280;42463;52.214;21.238;2022-07-29T02:40:34;100887.35;;;16.44;61.81
56582;BME280;42463;52.214;21.238;2022-07-29T02:43:03;100889.40;;;16.41;61.98
56582;BME280;42463;52.214;21.238;2022-07-29T02:45:31;100889.39;;;16.40;61.89
56582;BME280;42463;52.214;21.238;2022-07-29T02:48:00;100887.48;;;16.39;62.03
56582;BME280;42463;52.214;21.238;2022-07-29T02:50:37;100885.84;;;16.39;62.00
56582;BME280;42463;52.214;21.238;2022-07-29T02:53:07;100883.77;;;16.37;62.09
56582;BME280;42463;52.214;21.238;2022-07-29T02:55:39;100887.94;;;16.36;62.16
56582;BME280;42463;52.214;21.238;2022-07-29T02:58:10;100892.05;;;16.36;62.10
56582;BME280;42463;52.214;21.238;2022-07-29T03:00:41;100893.38;;;16.32;62.08
56582;BME280;42463;52.214;21.238;2022-07-29T03:03:13;100890.55;;;16.30;62.08
56582;BME280;42463;52.214;21.238;2022-07-29T03:05:41;100894.50;;;16.27;62.30
56582;BME280;42463;52.214;21.238;2022-07-29T03:08:11;100891.23;;;16.25;62.18
56582;BME280;42463;52.214;21.238;2022-07-29T03:10:39;100890.41;;;16.23;62.41
56582;BME280;42463;52.214;21.238;2022-07-29T03:13:06;100894.08;;;16.21;62.62
56582;BME280;42463;52.214;21.238;2022-07-29T03:15:33;100889.42;;;16.21;62.79
56582;BME280;42463;52.214;21.238;2022-07-29T03:18:01;100893.10;;;16.21;62.76
56582;BME280;42463;52.214;21.238;2022-07-29T03:20:28;100893.21;;;16.20;62.79
56582;BME280;42463;52.214;21.238;2022-07-29T03:22:53;100894.30;;;16.20;63.02
56582;BME280;42463;52.214;21.238;2022-07-29T03:25:21;100893.49;;;16.19;62.97
56582;BME280;42463;52.214;21.238;2022-07-29T03:27:48;100895.13;;;16.20;63.07
56582;BME280;42463;52.214;21.238;2022-07-29T03:30:16;100897.70;;;16.21;63.07
56582;BME280;42463;52.214;21.238;2022-07-29T03:32:43;100900.10;;;16.22;63.14
56582;BME280;42463;52.214;21.238;2022-07-29T03:35:09;100901.91;;;16.23;63.10
56582;BME280;42463;52.214;21.238;2022-07-29T03:37:36;100902.77;;;16.24;63.29
56582;BME280;42463;52.214;21.238;2022-07-29T03:40:05;100901.84;;;16.25;63.31
56582;BME280;42463;52.214;21.238;2022-07-29T03:42:35;100899.59;;;16.26;63.31
56582;BME280;42463;52.214;21.238;2022-07-29T03:45:05;100894.92;;;16.28;63.35
56582;BME280;42463;52.214;21.238;2022-07-29T03:47:34;100893.39;;;16.30;63.23
56582;BME280;42463;52.214;21.238;2022-07-29T03:50:07;100892.56;;;16.32;63.29
56582;BME280;42463;52.214;21.238;2022-07-29T03:52:34;100890.73;;;16.35;63.36
56582;BME280;42463;52.214;21.238;2022-07-29T03:55:01;100888.33;;;16.37;63.46
56582;BME280;42463;52.214;21.238;2022-07-29T03:57:29;100888.86;;;16.39;63.41
56582;BME280;42463;52.214;21.238;2022-07-29T03:59:57;100890.27;;;16.41;63.35
56582;BME280;42463;52.214;21.238;2022-07-29T04:02:24;100887.08;;;16.45;63.50
56582;BME280;42463;52.214;21.238;2022-07-29T04:04:51;100891.06;;;16.47;63.55
56582;BME280;42463;52.214;21.238;2022-07-29T04:07:17;100889.52;;;16.50;63.83
56582;BME280;42463;52.214;21.238;2022-07-29T04:09:44;100896.51;;;16.53;63.55
56582;BME280;42463;52.214;21.238;2022-07-29T04:12:11;100896.43;;;16.57;63.48
56582;BME280;42463;52.214;21.238;2022-07-29T04:14:37;100896.52;;;16.62;63.70
56582;BME280;42463;52.214;21.238;2022-07-29T04:17:04;100896.20;;;16.67;63.78
56582;BME280;42463;52.214;21.238;2022-07-29T04:19:30;100896.19;;;16.72;63.74
56582;BME280;42463;52.214;21.238;2022-07-29T04:21:57;100895.66;;;16.76;63.82
56582;BME280;42463;52.214;21.238;2022-07-29T04:24:24;100897.45;;;16.81;63.72
56582;BME280;42463;52.214;21.238;2022-07-29T04:26:51;100895.84;;;16.82;63.80
56582;BME280;42463;52.214;21.238;2022-07-29T04:29:17;100894.88;;;16.86;63.96
56582;BME280;42463;52.214;21.238;2022-07-29T04:31:43;100897.80;;;16.92;64.06
56582;BME280;42463;52.214;21.238;2022-07-29T04:34:10;100900.77;;;16.99;64.19
56582;BME280;42463;52.214;21.238;2022-07-29T04:36:37;100896.02;;;17.03;64.20
56582;BME280;42463;52.214;21.238;2022-07-29T04:39:04;100894.20;;;17.06;64.16
56582;BME280;42463;52.214;21.238;2022-07-29T04:41:30;100893.39;;;17.11;64.37
56582;BME280;42463;52.214;21.238;2022-07-29T04:43:56;100898.43;;;17.17;64.56
56582;BME280;42463;52.214;21.238;2022-07-29T04:46:25;100897.39;;;17.23;64.51
56582;BME280;42463;52.214;21.238;2022-07-29T04:48:51;100900.96;;;17.30;64.33
56582;BME280;42463;52.214;21.238;2022-07-29T04:51:18;100897.45;;;17.36;64.33
56582;BME280;42463;52.214;21.238;2022-07-29T04:53:44;100900.69;;;17.42;64.39
56582;BME280;42463;52.214;21.238;2022-07-29T04:56:11;100899.05;;;17.48;64.55
56582;BME280;42463;52.214;21.238;2022-07-29T04:58:38;100898.16;;;17.54;64.60
56582;BME280;42463;52.214;21.238;2022-07-29T05:01:04;100905.00;;;17.62;64.74
56582;BME280;42463;52.214;21.238;2022-07-29T05:03:31;100908.77;;;17.69;64.69
56582;BME280;42463;52.214;21.238;2022-07-29T05:05:57;100908.20;;;17.77;64.56
56582;BME280;42463;52.214;21.238;2022-07-29T05:08:24;100908.40;;;17.84;64.50
56582;BME280;42463;52.214;21.238;2022-07-29T05:10:49;100909.83;;;17.90;64.49
56582;BME280;42463;52.214;21.238;2022-07-29T05:13:16;100914.46;;;17.98;64.30
56582;BME280;42463;52.214;21.238;2022-07-29T05:15:42;100917.60;;;18.07;64.47
56582;BME280;42463;52.214;21.238;2022-07-29T05:18:08;100913.94;;;18.15;64.27
56582;BME280;42463;52.214;21.238;2022-07-29T05:20:34;100912.52;;;18.24;64.40
56582;BME280;42463;52.214;21.238;2022-07-29T05:23:01;100913.77;;;18.32;64.23
56582;BME280;42463;52.214;21.238;2022-07-29T05:25:29;100912.30;;;18.41;64.17
56582;BME280;42463;52.214;21.238;2022-07-29T05:27:56;100917.15;;;18.48;64.09
56582;BME280;42463;52.214;21.238;2022-07-29T05:30:23;100917.55;;;18.55;63.88
56582;BME280;42463;52.214;21.238;2022-07-29T05:32:49;100920.42;;;18.64;64.02
56582;BME280;42463;52.214;21.238;2022-07-29T05:35:16;100920.77;;;18.72;63.64
56582;BME280;42463;52.214;21.238;2022-07-29T05:37:43;100927.09;;;18.81;63.55
56582;BME280;42463;52.214;21.238;2022-07-29T05:40:11;100919.20;;;18.90;63.59
56582;BME280;42463;52.214;21.238;2022-07-29T05:42:37;100917.29;;;19.00;63.59
56582;BME280;42463;52.214;21.238;2022-07-29T05:45:05;100921.34;;;19.08;63.20
56582;BME280;42463;52.214;21.238;2022-07-29T05:47:31;100919.44;;;19.17;62.98
56582;BME280;42463;52.214;21.238;2022-07-29T05:49:58;100919.30;;;19.25;62.85
56582;BME280;42463;52.214;21.238;2022-07-29T05:52:24;100918.30;;;19.33;62.49
56582;BME280;42463;52.214;21.238;2022-07-29T05:54:50;100919.66;;;19.40;62.23
56582;BME280;42463;52.214;21.238;2022-07-29T05:57:20;100918.84;;;19.47;61.93
56582;BME280;42463;52.214;21.238;2022-07-29T05:59:48;100916.16;;;19.52;61.72
56582;BME280;42463;52.214;21.238;2022-07-29T06:02:14;100912.89;;;19.58;61.47
56582;BME280;42463;52.214;21.238;2022-07-29T06:04:41;100912.09;;;19.63;61.22
56582;BME280;42463;52.214;21.238;2022-07-29T06:07:08;100909.90;;;19.68;60.97
56582;BME280;42463;52.214;21.238;2022-07-29T06:09:34;100901.88;;;19.74;60.96
56582;BME280;42463;52.214;21.238;2022-07-29T06:12:00;100902.59;;;19.79;60.76
56582;BME280;42463;52.214;21.238;2022-07-29T06:14:26;100904.35;;;19.84;60.66
56582;BME280;42463;52.214;21.238;2022-07-29T06:16:53;100902.17;;;19.89;60.88
56582;BME280;42463;52.214;21.238;2022-07-29T06:19:19;100902.95;;;19.97;60.97
56582;BME280;42463;52.214;21.238;2022-07-29T06:21:46;100909.95;;;20.05;60.93
56582;BME280;42463;52.214;21.238;2022-07-29T06:24:13;100910.77;;;20.13;60.43
56582;BME280;42463;52.214;21.238;2022-07-29T06:26:40;100906.06;;;20.20;59.93
56582;BME280;42463;52.214;21.238;2022-07-29T06:29:07;100906.09;;;20.29;59.68
56582;BME280;42463;52.214;21.238;2022-07-29T06:31:35;100903.75;;;20.36;59.30
56582;BME280;42463;52.214;21.238;2022-07-29T06:34:02;100902.46;;;20.43;59.24
56582;BME280;42463;52.214;21.238;2022-07-29T06:36:28;100907.24;;;20.52;59.22
56582;BME280;42463;52.214;21.238;2022-07-29T06:38:54;100909.19;;;20.61;59.11
56582;BME280;42463;52.214;21.238;2022-07-29T06:41:20;100908.98;;;20.70;58.67
56582;BME280;42463;52.214;21.238;2022-07-29T06:43:47;100908.05;;;20.77;58.42
56582;BME280;42463;52.214;21.238;2022-07-29T06:46:18;100903.58;;;20.86;58.41
56582;BME280;42463;52.214;21.238;2022-07-29T06:48:45;100901.11;;;20.97;58.54
56582;BME280;42463;52.214;21.238;2022-07-29T06:51:12;100905.23;;;21.07;57.65
56582;BME280;42463;52.214;21.238;2022-07-29T06:53:39;100906.64;;;21.15;57.20
56582;BME280;42463;52.214;21.238;2022-07-29T06:56:07;100907.00;;;21.26;56.85
56582;BME280;42463;52.214;21.238;2022-07-29T06:58:34;100904.13;;;21.37;56.44
56582;BME280;42463;52.214;21.238;2022-07-29T07:01:02;100904.48;;;21.49;56.25
56582;BME280;42463;52.214;21.238;2022-07-29T07:03:29;100903.91;;;21.60;55.22
56582;BME280;42463;52.214;21.238;2022-07-29T07:05:56;100905.59;;;21.72;55.06
56582;BME280;42463;52.214;21.238;2022-07-29T07:08:24;100901.85;;;21.82;54.77
56582;BME280;42463;52.214;21.238;2022-07-29T07:10:51;100903.77;;;21.91;54.12
56582;BME280;42463;52.214;21.238;2022-07-29T07:13:17;100901.90;;;22.01;53.87
56582;BME280;42463;52.214;21.238;2022-07-29T07:15:44;100902.21;;;22.10;53.62
56582;BME280;42463;52.214;21.238;2022-07-29T07:18:12;100902.52;;;22.21;53.66
56582;BME280;42463;52.214;21.238;2022-07-29T07:20:38;100902.73;;;22.32;53.39
56582;BME280;42463;52.214;21.238;2022-07-29T07:23:04;100899.80;;;22.42;52.63
56582;BME280;42463;52.214;21.238;2022-07-29T07:25:30;100899.65;;;22.47;52.21
56582;BME280;42463;52.214;21.238;2022-07-29T07:27:57;100898.79;;;22.55;52.09
56582;BME280;42463;52.214;21.238;2022-07-29T07:30:24;100896.36;;;22.62;51.80
56582;BME280;42463;52.214;21.238;2022-07-29T07:32:50;100901.56;;;22.67;52.04
56582;BME280;42463;52.214;21.238;2022-07-29T07:35:16;100904.17;;;22.76;52.15
56582;BME280;42463;52.214;21.238;2022-07-29T07:37:42;100904.35;;;22.84;52.11
56582;BME280;42463;52.214;21.238;2022-07-29T07:40:12;100907.08;;;22.91;51.74
56582;BME280;42463;52.214;21.238;2022-07-29T07:42:39;100904.56;;;22.95;51.51
56582;BME280;42463;52.214;21.238;2022-07-29T07:45:08;100900.66;;;23.00;51.21
56582;BME280;42463;52.214;21.238;2022-07-29T07:47:34;100903.95;;;23.06;51.33
56582;BME280;42463;52.214;21.238;2022-07-29T07:50:01;100907.36;;;23.13;50.76
56582;BME280;42463;52.214;21.238;2022-07-29T07:52:27;100904.03;;;23.23;50.96
56582;BME280;42463;52.214;21.238;2022-07-29T07:54:53;100906.45;;;23.34;50.86
56582;BME280;42463;52.214;21.238;2022-07-29T07:57:19;100908.86;;;23.43;49.84
56582;BME280;42463;52.214;21.238;2022-07-29T07:59:47;100907.80;;;23.50;49.33
56582;BME280;42463;52.214;21.238;2022-07-29T08:02:13;100904.53;;;23.55;48.74
56582;BME280;42463;52.214;21.238;2022-07-29T08:04:39;100909.81;;;23.61;48.92
56582;BME280;42463;52.214;21.238;2022-07-29T08:07:06;100907.06;;;23.68;48.58
56582;BME280;42463;52.214;21.238;2022-07-29T08:09:33;100908.05;;;23.77;48.64
56582;BME280;42463;52.214;21.238;2022-07-29T08:12:00;100909.70;;;23.86;48.13
56582;BME280;42463;52.214;21.238;2022-07-29T08:14:28;100907.24;;;23.92;47.56
56582;BME280;42463;52.214;21.238;2022-07-29T08:16:54;100910.92;;;24.00;47.38
56582;BME280;42463;52.214;21.238;2022-07-29T08:19:21;100906.05;;;24.08;47.54
56582;BME280;42463;52.214;21.238;2022-07-29T08:21:47;100905.89;;;24.15;47.18
56582;BME280;42463;52.214;21.238;2022-07-29T08:24:13;100905.02;;;24.21;46.88
56582;BME280;42463;52.214;21.238;2022-07-29T08:26:56;100906.23;;;24.28;46.79
56582;BME280;42463;52.214;21.238;2022-07-29T08:29:23;100905.92;;;24.33;46.75
56582;BME280;42463;52.214;21.238;2022-07-29T08:31:49;100905.13;;;24.37;45.88
56582;BME280;42463;52.214;21.238;2022-07-29T08:34:15;100903.04;;;24.41;46.04
56582;BME280;42463;52.214;21.238;2022-07-29T08:36:44;100907.22;;;24.46;46.14
56582;BME280;42463;52.214;21.238;2022-07-29T08:39:14;100906.39;;;24.53;46.16
56582;BME280;42463;52.214;21.238;2022-07-29T08:41:44;100900.98;;;24.63;46.58
56582;BME280;42463;52.214;21.238;2022-07-29T08:44:11;100897.27;;;24.73;45.95
56582;BME280;42463;52.214;21.238;2022-07-29T08:46:39;100902.42;;;24.86;45.62
56582;BME280;42463;52.214;21.238;2022-07-29T08:49:07;100898.90;;;24.97;44.15
56582;BME280;42463;52.214;21.238;2022-07-29T08:51:37;100895.61;;;25.08;43.88
56582;BME280;42463;52.214;21.238;2022-07-29T08:54:06;100899.32;;;25.16;43.49
56582;BME280;42463;52.214;21.238;2022-07-29T08:56:34;100902.91;;;25.21;42.82
56582;BME280;42463;52.214;21.238;2022-07-29T08:59:04;100906.67;;;25.26;42.61
56582;BME280;42463;52.214;21.238;2022-07-29T09:01:32;100910.95;;;25.30;42.05
56582;BME280;42463;52.214;21.238;2022-07-29T09:04:00;100908.58;;;25.28;41.78
56582;BME280;42463;52.214;21.238;2022-07-29T09:06:31;100909.42;;;25.23;41.94
56582;BME280;42463;52.214;21.238;2022-07-29T09:09:00;100904.49;;;25.19;42.29
56582;BME280;42463;52.214;21.238;2022-07-29T09:11:26;100901.48;;;25.19;42.54
56582;BME280;42463;52.214;21.238;2022-07-29T09:13:53;100899.30;;;25.22;42.42
56582;BME280;42463;52.214;21.238;2022-07-29T09:16:20;100897.72;;;25.24;41.89
56582;BME280;42463;52.214;21.238;2022-07-29T09:18:47;100891.68;;;25.26;41.15
56582;BME280;42463;52.214;21.238;2022-07-29T09:21:16;100885.80;;;25.28;41.27
56582;BME280;42463;52.214;21.238;2022-07-29T09:24:07;100886.10;;;25.35;40.78
56582;BME280;42463;52.214;21.238;2022-07-29T09:26:38;100886.52;;;25.41;41.05
56582;BME280;42463;52.214;21.238;2022-07-29T09:29:12;100889.96;;;25.47;40.58
56582;BME280;42463;52.214;21.238;2022-07-29T09:31:42;100895.77;;;25.45;40.27
56582;BME280;42463;52.214;21.238;2022-07-29T09:34:11;100896.55;;;25.45;40.59
56582;BME280;42463;52.214;21.238;2022-07-29T09:36:44;100892.71;;;25.46;40.86
56582;BME280;42463;52.214;21.238;2022-07-29T09:39:11;100891.67;;;25.49;40.48
56582;BME280;42463;52.214;21.238;2022-07-29T09:41:50;100888.73;;;25.53;40.36
56582;BME280;42463;52.214;21.238;2022-07-29T09:44:17;100885.45;;;25.56;40.30
56582;BME280;42463;52.214;21.238;2022-07-29T09:46:58;100879.52;;;25.59;40.67
56582;BME280;42463;52.214;21.238;2022-07-29T09:49:30;100879.02;;;25.68;40.21
56582;BME280;42463;52.214;21.238;2022-07-29T09:52:09;100873.91;;;25.78;39.62
56582;BME280;42463;52.214;21.238;2022-07-29T09:54:36;100868.96;;;25.89;38.92
56582;BME280;42463;52.214;21.238;2022-07-29T09:57:03;100869.69;;;25.99;38.87
56582;BME280;42463;52.214;21.238;2022-07-29T09:59:30;100870.64;;;26.10;38.68
56582;BME280;42463;52.214;21.238;2022-07-29T10:01:57;100869.98;;;26.22;38.11
56582;BME280;42463;52.214;21.238;2022-07-29T10:04:37;100865.92;;;26.29;37.30
56582;BME280;42463;52.214;21.238;2022-07-29T10:07:05;100866.78;;;26.35;37.85
56582;BME280;42463;52.214;21.238;2022-07-29T10:09:31;100861.98;;;26.40;37.60
56582;BME280;42463;52.214;21.238;2022-07-29T10:12:14;100857.52;;;26.45;37.29
56582;BME280;42463;52.214;21.238;2022-07-29T10:14:40;100863.84;;;26.46;36.59
56582;BME280;42463;52.214;21.238;2022-07-29T10:17:08;100860.46;;;26.45;36.13
56582;BME280;42463;52.214;21.238;2022-07-29T10:19:36;100854.34;;;26.44;35.86
56582;BME280;42463;52.214;21.238;2022-07-29T10:22:05;100851.80;;;26.44;35.42
56582;BME280;42463;52.214;21.238;2022-07-29T10:24:34;100856.08;;;26.44;36.38
56582;BME280;42463;52.214;21.238;2022-07-29T10:27:06;100853.58;;;26.45;36.61
56582;BME280;42463;52.214;21.238;2022-07-29T10:29:33;100852.73;;;26.47;36.73
56582;BME280;42463;52.214;21.238;2022-07-29T10:32:22;100845.31;;;26.48;37.14
56582;BME280;42463;52.214;21.238;2022-07-29T10:35:18;100845.33;;;26.51;37.10
56582;BME280;42463;52.214;21.238;2022-07-29T10:38:29;100843.16;;;26.53;37.24
56582;BME280;42463;52.214;21.238;2022-07-29T10:41:16;100842.63;;;26.54;36.82
56582;BME280;42463;52.214;21.238;2022-07-29T10:43:58;100837.44;;;26.56;36.33
56582;BME280;42463;52.214;21.238;2022-07-29T10:46:25;100834.57;;;26.58;36.63
56582;BME280;42463;52.214;21.238;2022-07-29T10:49:13;100834.70;;;26.60;36.42
56582;BME280;42463;52.214;21.238;2022-07-29T10:52:01;100832.27;;;26.61;36.38
56582;BME280;42463;52.214;21.238;2022-07-29T10:54:46;100832.00;;;26.63;36.41
56582;BME280;42463;52.214;21.238;2022-07-29T10:57:18;100838.95;;;26.67;36.21
56582;BME280;42463;52.214;21.238;2022-07-29T10:59:50;100837.84;;;26.72;36.28
56582;BME280;42463;52.214;21.238;2022-07-29T11:02:46;100834.19;;;26.81;36.25
56582;BME280;42463;52.214;21.238;2022-07-29T11:05:19;100827.26;;;26.86;35.20
56582;BME280;42463;52.214;21.238;2022-07-29T11:08:21;100830.36;;;26.88;35.26
56582;BME280;42463;52.214;21.238;2022-07-29T11:10:51;100829.79;;;26.85;34.63
56582;BME280;42463;52.214;21.238;2022-07-29T11:13:52;100831.70;;;26.85;34.68
56582;BME280;42463;52.214;21.238;2022-07-29T11:16:21;100819.66;;;26.88;34.74
56582;BME280;42463;52.214;21.238;2022-07-29T11:19:26;100822.58;;;26.89;34.86
56582;BME280;42463;52.214;21.238;2022-07-29T11:21:52;100822.38;;;26.88;35.35
56582;BME280;42463;52.214;21.238;2022-07-29T11:24:21;100825.42;;;26.88;35.28
56582;BME280;42463;52.214;21.238;2022-07-29T11:27:07;100820.55;;;26.88;34.81
56582;BME280;42463;52.214;21.238;2022-07-29T11:29:37;100816.80;;;26.85;34.96
56582;BME280;42463;52.214;21.238;2022-07-29T11:32:15;100822.73;;;26.86;34.41
56582;BME280;42463;52.214;21.238;2022-07-29T11:34:44;100819.67;;;26.85;34.66
56582;BME280;42463;52.214;21.238;2022-07-29T11:37:24;100818.20;;;26.84;34.85
56582;BME280;42463;52.214;21.238;2022-07-29T11:40:18;100813.73;;;26.84;34.59
56582;BME280;42463;52.214;21.238;2022-07-29T11:42:51;100806.95;;;26.88;34.88
56582;BME280;42463;52.214;21.238;2022-07-29T11:45:22;100807.30;;;26.92;35.22
56582;BME280;42463;52.214;21.238;2022-07-29T11:47:56;100805.84;;;26.91;34.98
56582;BME280;42463;52.214;21.238;2022-07-29T11:50:35;100805.69;;;26.94;34.93
56582;BME280;42463;52.214;21.238;2022-07-29T11:53:03;100803.74;;;26.98;34.91
56582;BME280;42463;52.214;21.238;2022-07-29T11:55:37;100800.27;;;26.98;34.13
56582;BME280;42463;52.214;21.238;2022-07-29T11:58:05;100796.97;;;27.00;34.21
56582;BME280;42463;52.214;21.238;2022-07-29T12:00:34;100789.29;;;27.04;34.54
56582;BME280;42463;52.214;21.238;2022-07-29T12:03:06;100792.70;;;27.12;34.46
56582;BME280;42463;52.214;21.238;2022-07-29T12:05:41;100796.29;;;27.18;34.42
56582;BME280;42463;52.214;21.238;2022-07-29T12:08:19;100791.88;;;27.22;33.94
56582;BME280;42463;52.214;21.238;2022-07-29T12:10:47;100793.77;;;27.31;34.24
56582;BME280;42463;52.214;21.238;2022-07-29T12:18:19;100788.55;;;27.42;34.00
56582;BME280;42463;52.214;21.238;2022-07-29T12:20:47;100791.42;;;27.48;33.96
56582;BME280;42463;52.214;21.238;2022-07-29T12:23:16;100794.13;;;27.51;33.41
56582;BME280;42463;52.214;21.238;2022-07-29T12:25:46;100791.41;;;27.54;33.12
56582;BME280;42463;52.214;21.238;2022-07-29T12:28:14;100790.38;;;27.57;33.25
56582;BME280;42463;52.214;21.238;2022-07-29T12:30:49;100792.14;;;27.62;32.77
56582;BME280;42463;52.214;21.238;2022-07-29T12:33:26;100788.17;;;27.67;32.91
56582;BME280;42463;52.214;21.238;2022-07-29T12:35:55;100783.74;;;27.75;32.85
56582;BME280;42463;52.214;21.238;2022-07-29T12:38:22;100781.92;;;27.85;33.03
56582;BME280;42463;52.214;21.238;2022-07-29T12:40:49;100779.66;;;27.94;32.70
56582;BME280;42463;52.214;21.238;2022-07-29T12:43:21;100779.68;;;28.02;32.73
56582;BME280;42463;52.214;21.238;2022-07-29T12:45:50;100777.60;;;28.05;32.35
56582;BME280;42463;52.214;21.238;2022-07-29T12:48:16;100771.40;;;28.05;32.17
56582;BME280;42463;52.214;21.238;2022-07-29T12:51:07;100770.81;;;28.01;32.54
56582;BME280;42463;52.214;21.238;2022-07-29T12:53:35;100767.80;;;27.97;33.15
56582;BME280;42463;52.214;21.238;2022-07-29T12:56:03;100770.70;;;27.95;33.55
56582;BME280;42463;52.214;21.238;2022-07-29T12:58:35;100766.94;;;27.88;32.59
56582;BME280;42463;52.214;21.238;2022-07-29T13:01:11;100762.50;;;27.75;32.92
56582;BME280;42463;52.214;21.238;2022-07-29T13:03:52;100764.15;;;27.68;32.83